Terminal Aerodrome Forecast
Issued by NWS Green Bay, WI

Home | Current Version | Previous Version | Text Only | Print | Product List | Glossary Off
Versions: 1 2 3 4 5 6 7 8 9 10 11 12 13 14 15 16 17 18 19 20 21 22 23 24 25 26 27 28 29 30 31 32 33 34 35 36 37 38

497
FTUS43 KGRB 261720
TAFGRB
TAF
KGRB 261720Z 2618/2718 23007KT P6SM FEW045
     FM262000 23008KT P6SM SCT050 SCT100
     FM262300 23005KT P6SM SCT100 SCT250
     FM270800 27003KT P6SM VCSH SCT070 BKN120
      TEMPO 2708/2712 5SM BR
     FM271400 30004KT P6SM VCSH SCT060 OVC120=

USA.gov is the U.S. government's official web portal to all federal, state and local government web resources and services.